createdAt,value
2022-11-08T00:00:11.763Z,16.52
2022-11-08T00:01:09.900Z,16.52
2022-11-08T00:02:10.880Z,16.52
2022-11-08T00:03:10.264Z,16.52
2022-11-08T00:04:10.160Z,16.51
2022-11-08T00:05:10.443Z,16.5
2022-11-08T00:06:10.407Z,16.50
2022-11-08T00:07:10.249Z,16.50
2022-11-08T00:08:10.063Z,16.50
2022-11-08T00:09:10.724Z,16.51
2022-11-08T00:10:10.855Z,16.49
2022-11-08T00:11:10.686Z,16.48
2022-11-08T00:12:10.585Z,16.51
2022-11-08T00:13:10.335Z,16.5
2022-11-08T00:14:10.184Z,16.48
2022-11-08T00:15:10.269Z,16.46
2022-11-08T00:16:09.918Z,16.48
2022-11-08T00:17:11.029Z,16.45
2022-11-08T00:18:10.231Z,16.43
2022-11-08T00:19:10.899Z,16.40
2022-11-08T00:20:11.026Z,16.40
2022-11-08T00:21:11.032Z,16.40
2022-11-08T00:22:10.258Z,16.39
2022-11-08T00:23:10.744Z,16.39
2022-11-08T00:24:10.996Z,16.40
2022-11-08T00:25:10.870Z,16.40
2022-11-08T00:26:11.094Z,16.37
2022-11-08T00:27:10.174Z,16.36
2022-11-08T00:28:10.083Z,16.39
2022-11-08T00:29:10.630Z,16.38
2022-11-08T00:30:10.549Z,16.40
2022-11-08T00:31:10.514Z,16.40
2022-11-08T00:32:10.514Z,16.38
2022-11-08T00:33:10.150Z,16.38
2022-11-08T00:34:09.810Z,16.35
2022-11-08T00:35:10.722Z,16.35
2022-11-08T00:36:10.584Z,16.36
2022-11-08T00:37:10.696Z,16.36
2022-11-08T00:38:10.299Z,16.34
2022-11-08T00:39:10.788Z,16.34
2022-11-08T00:40:10.756Z,16.34
2022-11-08T00:41:10.704Z,16.37
2022-11-08T00:42:10.261Z,16.35
2022-11-08T00:43:10.000Z,16.35
2022-11-08T00:44:10.639Z,16.34
2022-11-08T00:45:10.745Z,16.38
2022-11-08T00:46:10.546Z,16.40
2022-11-08T00:47:10.553Z,16.42
2022-11-08T00:48:10.143Z,16.44
2022-11-08T00:49:10.675Z,16.46
2022-11-08T00:50:10.543Z,16.45
2022-11-08T00:51:10.328Z,16.50
2022-11-08T00:52:10.061Z,16.54
2022-11-08T00:53:10.857Z,16.53
2022-11-08T00:54:10.595Z,16.54
2022-11-08T00:55:10.382Z,16.57
2022-11-08T00:56:09.985Z,16.58
2022-11-08T00:57:10.646Z,16.56
2022-11-08T00:58:10.622Z,16.56
2022-11-08T00:59:10.799Z,16.57
2022-11-08T01:00:11.035Z,16.61
2022-11-08T01:01:11.846Z,16.63
2022-11-08T01:02:10.882Z,16.64
2022-11-08T01:03:10.755Z,16.62
2022-11-08T01:04:10.369Z,16.64
2022-11-08T01:05:10.354Z,16.62
2022-11-08T01:06:10.357Z,16.64
2022-11-08T01:07:10.161Z,16.63
2022-11-08T01:08:10.186Z,16.63
2022-11-08T01:09:10.758Z,16.63
2022-11-08T01:10:10.279Z,16.64
2022-11-08T01:11:10.243Z,16.66
2022-11-08T01:12:10.113Z,16.67
2022-11-08T01:13:09.877Z,16.67
2022-11-08T01:14:10.741Z,16.66
2022-11-08T01:15:10.755Z,16.69
2022-11-08T01:16:10.648Z,16.70
2022-11-08T01:17:10.349Z,16.72
2022-11-08T01:18:10.237Z,16.72
2022-11-08T01:19:10.672Z,16.72
2022-11-08T01:20:10.503Z,16.73
2022-11-08T01:21:10.247Z,16.71
2022-11-08T01:22:09.963Z,16.69
2022-11-08T01:23:09.830Z,16.73
2022-11-08T01:24:10.651Z,16.72
2022-11-08T01:25:10.458Z,16.73
2022-11-08T01:26:10.032Z,16.72
2022-11-08T01:27:09.998Z,16.73
2022-11-08T01:28:11.068Z,16.75
2022-11-08T01:29:10.644Z,16.71
2022-11-08T01:30:10.568Z,16.72
2022-11-08T01:31:10.449Z,16.71
2022-11-08T01:32:10.174Z,16.68
2022-11-08T01:33:09.967Z,16.68
2022-11-08T01:34:10.863Z,16.69
2022-11-08T01:35:10.593Z,16.70
2022-11-08T01:36:10.539Z,16.68
2022-11-08T01:37:10.025Z,16.70
2022-11-08T01:38:10.780Z,16.68
2022-11-08T01:39:10.178Z,16.67
2022-11-08T01:40:09.772Z,16.68
2022-11-08T01:41:10.445Z,16.68
2022-11-08T01:42:10.417Z,16.70
2022-11-08T01:43:10.498Z,16.70
2022-11-08T01:44:10.137Z,16.67
2022-11-08T01:45:10.004Z,16.63
2022-11-08T01:46:10.813Z,16.60
2022-11-08T01:47:10.588Z,16.60
2022-11-08T01:48:10.160Z,16.57
2022-11-08T01:49:10.632Z,16.53
2022-11-08T01:50:10.086Z,16.52
2022-11-08T01:51:10.787Z,16.49
2022-11-08T01:52:10.305Z,16.43
2022-11-08T01:53:09.839Z,16.42
2022-11-08T01:54:10.654Z,16.40
2022-11-08T01:55:10.593Z,16.37
2022-11-08T01:56:10.599Z,16.37
2022-11-08T01:57:10.549Z,16.32
2022-11-08T01:58:10.473Z,16.29
2022-11-08T01:59:09.749Z,16.30
2022-11-08T02:00:11.189Z,16.27
2022-11-08T02:01:10.531Z,16.26
2022-11-08T02:02:10.794Z,16.23
2022-11-08T02:03:11.154Z,16.21
2022-11-08T02:04:10.181Z,16.19
2022-11-08T02:05:10.381Z,16.16
2022-11-08T02:06:10.056Z,16.09
2022-11-08T02:07:10.070Z,16.05
2022-11-08T02:08:11.045Z,16.01
2022-11-08T02:09:10.100Z,16
2022-11-08T02:10:10.000Z,15.98
2022-11-08T02:11:09.910Z,15.95
2022-11-08T02:12:10.607Z,15.89
2022-11-08T02:13:14.432Z,15.85
2022-11-08T02:14:10.645Z,15.83
2022-11-08T02:15:10.889Z,15.86
2022-11-08T02:16:10.798Z,15.85
2022-11-08T02:17:10.686Z,15.82
2022-11-08T02:18:10.630Z,15.76
2022-11-08T02:19:09.990Z,15.71
2022-11-08T02:20:11.089Z,15.70
2022-11-08T02:21:10.586Z,15.68
2022-11-08T02:22:10.508Z,15.64
2022-11-08T02:23:09.768Z,15.63
2022-11-08T02:24:10.554Z,15.62
2022-11-08T02:25:10.663Z,15.61
2022-11-08T02:26:10.337Z,15.60
2022-11-08T02:27:10.126Z,15.59
2022-11-08T02:28:09.906Z,15.55
2022-11-08T02:29:10.093Z,15.51
2022-11-08T02:30:10.404Z,15.52
2022-11-08T02:31:10.161Z,15.48
2022-11-08T02:32:09.913Z,15.46
2022-11-08T02:33:10.937Z,15.45
2022-11-08T02:34:10.571Z,15.43
2022-11-08T02:35:10.465Z,15.44
2022-11-08T02:36:10.165Z,15.43
2022-11-08T02:37:10.304Z,15.42
2022-11-08T02:38:10.095Z,15.38
2022-11-08T02:39:10.439Z,15.37
2022-11-08T02:40:10.281Z,15.38
2022-11-08T02:41:10.112Z,15.35
2022-11-08T02:42:10.128Z,15.35
2022-11-08T02:43:11.007Z,15.31
2022-11-08T02:44:10.724Z,15.26
2022-11-08T02:45:10.691Z,15.25
2022-11-08T02:46:09.946Z,15.24
2022-11-08T02:47:10.992Z,15.22
2022-11-08T02:48:10.610Z,15.21
2022-11-08T02:49:09.990Z,15.18
2022-11-08T02:50:10.888Z,15.19
2022-11-08T02:51:10.925Z,15.20
2022-11-08T02:52:10.608Z,15.20
2022-11-08T02:53:09.966Z,15.16
2022-11-08T02:54:10.721Z,15.10
2022-11-08T02:55:10.681Z,15.09
2022-11-08T02:56:10.237Z,15.10
2022-11-08T02:57:10.107Z,15.06
2022-11-08T02:58:10.731Z,15.05
2022-11-08T02:59:10.096Z,15.05
2022-11-08T03:00:11.538Z,15.03
2022-11-08T03:01:10.756Z,14.99
2022-11-08T03:02:10.508Z,14.97
2022-11-08T03:03:10.757Z,14.97
2022-11-08T03:04:10.373Z,14.98
2022-11-08T03:05:10.233Z,14.96
2022-11-08T03:06:09.969Z,14.93
2022-11-08T03:07:10.544Z,14.87
2022-11-08T03:08:10.146Z,14.87
2022-11-08T03:09:10.821Z,14.86
2022-11-08T03:10:10.497Z,14.85
2022-11-08T03:11:10.260Z,14.84
2022-11-08T03:12:10.207Z,14.86
2022-11-08T03:13:10.936Z,14.86
2022-11-08T03:14:10.640Z,14.82
2022-11-08T03:15:10.389Z,14.80
2022-11-08T03:16:10.036Z,14.79
2022-11-08T03:17:10.702Z,14.78
2022-11-08T03:18:10.552Z,14.76
2022-11-08T03:19:10.831Z,14.76
2022-11-08T03:20:10.287Z,14.77
2022-11-08T03:21:10.191Z,14.80
2022-11-08T03:22:10.843Z,14.79
2022-11-08T03:23:10.379Z,14.77
2022-11-08T03:24:10.049Z,14.78
2022-11-08T03:25:10.850Z,14.78
2022-11-08T03:26:10.409Z,14.79
2022-11-08T03:27:10.153Z,14.76
2022-11-08T03:28:09.802Z,14.78
2022-11-08T03:29:10.898Z,14.78
2022-11-08T03:30:10.729Z,14.80
2022-11-08T03:31:10.471Z,14.77
2022-11-08T03:32:10.351Z,14.75
2022-11-08T03:33:09.794Z,14.73
2022-11-08T03:34:10.383Z,14.69
2022-11-08T03:35:09.936Z,14.69
2022-11-08T03:36:10.586Z,14.66
2022-11-08T03:37:10.042Z,14.63
2022-11-08T03:38:10.526Z,14.63
2022-11-08T03:39:10.125Z,14.62
2022-11-08T03:40:11.002Z,14.60
2022-11-08T03:41:10.838Z,14.58
2022-11-08T03:42:10.552Z,14.59
2022-11-08T03:43:10.053Z,14.56
2022-11-08T03:44:10.121Z,14.53
2022-11-08T03:45:11.022Z,14.53
2022-11-08T03:46:10.472Z,14.54
2022-11-08T03:47:10.166Z,14.53
2022-11-08T03:48:10.886Z,14.50
2022-11-08T03:49:10.166Z,14.50
2022-11-08T03:50:10.217Z,14.51
2022-11-08T03:51:10.216Z,14.52
2022-11-08T03:52:10.039Z,14.5
2022-11-08T03:53:10.765Z,14.47
2022-11-08T03:54:10.735Z,14.47
2022-11-08T03:55:10.237Z,14.52
2022-11-08T03:56:09.833Z,14.47
2022-11-08T03:57:10.660Z,14.44
2022-11-08T03:58:10.705Z,14.43
2022-11-08T03:59:10.114Z,14.39
2022-11-08T04:00:11.510Z,14.40
2022-11-08T04:01:10.478Z,14.40
2022-11-08T04:02:10.395Z,14.41
2022-11-08T04:03:10.450Z,14.43
2022-11-08T04:04:10.370Z,14.39
2022-11-08T04:05:10.118Z,14.38
2022-11-08T04:06:10.170Z,14.36
2022-11-08T04:07:10.250Z,14.33
2022-11-08T04:08:10.137Z,14.37
2022-11-08T04:09:10.698Z,14.36
2022-11-08T04:10:10.806Z,14.38
2022-11-08T04:11:10.847Z,14.38
2022-11-08T04:12:11.023Z,14.36
2022-11-08T04:13:11.081Z,14.36
2022-11-08T04:14:15.074Z,14.36
2022-11-08T04:15:11.389Z,14.32
2022-11-08T04:16:18.024Z,14.32
2022-11-08T04:17:11.066Z,14.30
2022-11-08T04:18:10.794Z,14.28
2022-11-08T04:19:10.369Z,14.29
2022-11-08T04:20:10.483Z,14.30
2022-11-08T04:21:10.637Z,14.32
2022-11-08T04:22:10.453Z,14.32
2022-11-08T04:23:10.464Z,14.31
2022-11-08T04:24:10.555Z,14.33
2022-11-08T04:25:10.669Z,14.34
2022-11-08T04:26:10.686Z,14.34
2022-11-08T04:27:10.694Z,14.33
2022-11-08T04:28:10.663Z,14.36
2022-11-08T04:29:10.959Z,14.35
2022-11-08T04:30:11.004Z,14.37
2022-11-08T04:31:10.928Z,14.38
2022-11-08T04:32:11.045Z,14.40
2022-11-08T04:33:11.031Z,14.42
2022-11-08T04:34:09.971Z,14.42
2022-11-08T04:35:10.778Z,14.43
2022-11-08T04:36:10.802Z,14.46
2022-11-08T04:37:10.978Z,14.46
2022-11-08T04:38:10.906Z,14.43
2022-11-08T04:39:10.245Z,14.43
2022-11-08T04:40:10.239Z,14.39
2022-11-08T04:41:10.136Z,14.36
2022-11-08T04:42:10.282Z,14.36
2022-11-08T04:43:10.294Z,14.38
2022-11-08T04:44:10.488Z,14.35
2022-11-08T04:45:10.682Z,14.31
2022-11-08T04:46:10.503Z,14.31
2022-11-08T04:47:10.128Z,14.29
2022-11-08T04:48:10.005Z,14.27
2022-11-08T04:49:10.344Z,14.26
2022-11-08T04:50:10.309Z,14.27
2022-11-08T04:51:10.300Z,14.25
2022-11-08T04:52:10.026Z,14.22
2022-11-08T04:53:11.056Z,14.16
2022-11-08T04:54:10.700Z,14.17
2022-11-08T04:55:10.523Z,14.15
2022-11-08T04:56:10.433Z,14.15
2022-11-08T04:57:10.285Z,14.13
2022-11-08T04:58:10.042Z,14.10
2022-11-08T04:59:12.023Z,14.09
2022-11-08T05:00:10.768Z,14.10
2022-11-08T05:01:10.433Z,14.10
2022-11-08T05:02:10.625Z,14.08
2022-11-08T05:03:11.047Z,14.07
2022-11-08T05:04:10.949Z,14.04
2022-11-08T05:05:11.103Z,14.05
2022-11-08T05:06:10.062Z,14.02
2022-11-08T05:07:09.970Z,14.01
2022-11-08T05:08:11.106Z,14.02
2022-11-08T05:09:10.494Z,13.98
2022-11-08T05:10:10.454Z,13.97
2022-11-08T05:11:10.661Z,13.98
2022-11-08T05:12:10.600Z,13.98
2022-11-08T05:13:10.349Z,14.02
2022-11-08T05:14:10.158Z,14
2022-11-08T05:15:10.755Z,13.98
2022-11-08T05:16:10.755Z,14.00
2022-11-08T05:17:10.752Z,14
2022-11-08T05:18:10.481Z,13.96
2022-11-08T05:19:13.190Z,13.97
2022-11-08T05:20:10.474Z,13.93
2022-11-08T05:21:10.339Z,13.95
2022-11-08T05:22:10.328Z,13.93
2022-11-08T05:23:10.492Z,13.94
2022-11-08T05:24:10.447Z,13.94
2022-11-08T05:25:10.699Z,13.94
2022-11-08T05:26:10.840Z,13.95
2022-11-08T05:27:10.712Z,13.97
2022-11-08T05:28:10.515Z,13.98
2022-11-08T05:29:10.310Z,14
2022-11-08T05:30:10.589Z,14.03
2022-11-08T05:31:10.504Z,14.03
2022-11-08T05:32:10.188Z,14.06
2022-11-08T05:33:10.261Z,14.06
2022-11-08T05:34:10.199Z,14.04
2022-11-08T05:35:10.401Z,14.01
2022-11-08T05:36:10.687Z,14.03
2022-11-08T05:37:10.814Z,14.03
2022-11-08T05:38:10.732Z,14.02
2022-11-08T05:39:10.075Z,14.00
2022-11-08T05:40:10.261Z,14.00
2022-11-08T05:41:10.180Z,14.01
2022-11-08T05:42:10.410Z,14.03
2022-11-08T05:43:10.264Z,14.03
2022-11-08T05:45:10.870Z,14.02
2022-11-08T05:47:10.145Z,14.03
2022-11-08T05:48:10.052Z,14.03
2022-11-08T05:49:10.469Z,14.02
2022-11-08T05:50:12.371Z,14.04
2022-11-08T05:51:09.867Z,14.05
2022-11-08T05:52:10.787Z,14.05
2022-11-08T05:53:10.746Z,14.06
2022-11-08T05:54:10.239Z,14.05
2022-11-08T05:55:10.262Z,14.07
2022-11-08T05:56:10.040Z,14.06
2022-11-08T05:57:10.866Z,14.05
2022-11-08T05:58:10.002Z,14.04
2022-11-08T05:59:10.754Z,14.04
2022-11-08T06:00:11.451Z,14.02
2022-11-08T06:01:10.760Z,14.05
2022-11-08T06:02:10.600Z,14.02
2022-11-08T06:03:10.830Z,14.02
2022-11-08T06:04:10.763Z,14.02
2022-11-08T06:05:10.577Z,14.01
2022-11-08T06:06:10.342Z,13.98
2022-11-08T06:07:10.641Z,13.97
2022-11-08T06:08:11.081Z,13.98
2022-11-08T06:09:10.665Z,14
2022-11-08T06:10:10.759Z,14.02
2022-11-08T06:11:11.078Z,14.02
2022-11-08T06:12:10.609Z,14.04
2022-11-08T06:13:10.604Z,14.01
2022-11-08T06:14:10.566Z,14
2022-11-08T06:15:10.826Z,14.00
2022-11-08T06:16:10.875Z,13.99
2022-11-08T06:17:10.834Z,14.01
2022-11-08T06:18:10.659Z,14.00
2022-11-08T06:19:10.528Z,13.98
2022-11-08T06:20:10.687Z,13.93
2022-11-08T06:21:10.667Z,13.94
2022-11-08T06:22:10.798Z,13.97
2022-11-08T06:23:10.043Z,13.95
2022-11-08T06:24:10.876Z,13.93
2022-11-08T06:25:10.372Z,13.86
2022-11-08T06:26:10.282Z,13.83
2022-11-08T06:27:10.352Z,13.81
2022-11-08T06:28:10.372Z,13.77
2022-11-08T06:29:10.424Z,13.75
2022-11-08T06:30:10.723Z,13.75
2022-11-08T06:31:10.734Z,13.76
2022-11-08T06:32:10.434Z,13.72
2022-11-08T06:33:10.754Z,13.71
2022-11-08T06:34:10.595Z,13.71
2022-11-08T06:35:10.496Z,13.69
2022-11-08T06:36:10.163Z,13.67
2022-11-08T06:37:10.127Z,13.68
2022-11-08T06:38:09.998Z,13.67
2022-11-08T06:39:10.114Z,13.65
2022-11-08T06:40:10.219Z,13.67
2022-11-08T06:41:10.053Z,13.69
2022-11-08T06:42:09.938Z,13.68
2022-11-08T06:43:14.973Z,13.67
2022-11-08T06:44:10.225Z,13.68
2022-11-08T06:45:10.798Z,13.69
2022-11-08T06:46:10.812Z,13.69
2022-11-08T06:47:10.728Z,13.69
2022-11-08T06:48:10.805Z,13.70
2022-11-08T06:49:11.134Z,13.65
2022-11-08T06:50:10.654Z,13.68
2022-11-08T06:51:11.301Z,13.68
2022-11-08T06:52:10.719Z,13.70
2022-11-08T06:53:11.325Z,13.70
2022-11-08T06:54:15.458Z,13.72
2022-11-08T06:55:11.229Z,13.75
2022-11-08T06:56:10.252Z,13.73
2022-11-08T06:57:10.232Z,13.75
2022-11-08T06:58:10.401Z,13.77
2022-11-08T06:59:10.328Z,13.77
2022-11-08T07:00:10.852Z,13.77
2022-11-08T07:01:24.631Z,13.76
2022-11-08T07:02:11.110Z,13.77
2022-11-08T07:03:10.670Z,13.79
2022-11-08T07:04:10.198Z,13.81
2022-11-08T07:05:10.377Z,13.85
2022-11-08T07:06:10.292Z,13.82
2022-11-08T07:07:10.737Z,13.82
2022-11-08T07:08:10.869Z,13.83
2022-11-08T07:09:11.190Z,13.85
2022-11-08T07:10:09.916Z,13.88
2022-11-08T07:11:11.007Z,13.89
2022-11-08T07:12:10.205Z,13.93
2022-11-08T07:13:10.873Z,13.92
2022-11-08T07:14:10.880Z,13.93
2022-11-08T07:15:29.245Z,13.93
2022-11-08T07:16:10.564Z,13.92
2022-11-08T07:17:10.872Z,13.94
2022-11-08T07:18:10.267Z,13.93
2022-11-08T07:19:10.325Z,13.93
2022-11-08T07:20:10.509Z,13.95
2022-11-08T07:21:10.446Z,13.94
2022-11-08T07:22:10.561Z,13.93
2022-11-08T07:23:10.517Z,13.93
2022-11-08T07:24:10.868Z,13.95
2022-11-08T07:25:10.898Z,14.01
2022-11-08T07:26:10.063Z,14.05
2022-11-08T07:27:10.535Z,14.07
2022-11-08T07:28:12.140Z,14.10
2022-11-08T07:29:14.766Z,14.12
2022-11-08T07:30:11.086Z,14.15
2022-11-08T07:31:10.307Z,14.21
2022-11-08T07:32:10.202Z,14.26
2022-11-08T07:33:10.612Z,14.29
2022-11-08T07:34:10.444Z,14.34
2022-11-08T07:35:11.046Z,14.35
2022-11-08T07:36:10.337Z,14.40
2022-11-08T07:37:10.487Z,14.40
2022-11-08T07:38:10.434Z,14.44
2022-11-08T07:39:10.689Z,14.47
2022-11-08T07:40:11.060Z,14.50
2022-11-08T07:41:10.055Z,14.55
2022-11-08T07:42:11.259Z,14.60
2022-11-08T07:43:12.600Z,14.63
2022-11-08T07:44:10.033Z,14.67
2022-11-08T07:45:10.283Z,14.67
2022-11-08T07:46:10.466Z,14.69
2022-11-08T07:47:10.236Z,14.74
2022-11-08T07:48:12.427Z,14.78
2022-11-08T07:49:10.971Z,14.77
2022-11-08T07:50:11.000Z,14.77
2022-11-08T07:51:10.258Z,14.78
2022-11-08T07:52:10.268Z,14.78
2022-11-08T07:53:10.301Z,14.75
2022-11-08T07:54:10.944Z,14.79
2022-11-08T07:55:11.290Z,14.82
2022-11-08T07:56:10.543Z,14.86
2022-11-08T07:57:11.972Z,14.91
2022-11-08T07:58:10.166Z,14.94
2022-11-08T07:59:10.460Z,14.98
2022-11-08T08:00:11.390Z,15.04
2022-11-08T08:01:10.879Z,15.10
2022-11-08T08:02:10.845Z,15.18
2022-11-08T08:03:10.444Z,15.24
2022-11-08T08:04:10.725Z,15.27
2022-11-08T08:05:11.065Z,15.30
2022-11-08T08:06:10.644Z,15.34
2022-11-08T08:07:11.008Z,15.39
2022-11-08T08:08:10.250Z,15.43
2022-11-08T08:09:10.495Z,15.47
2022-11-08T08:10:10.936Z,15.52
2022-11-08T08:11:11.041Z,15.55
2022-11-08T08:12:10.146Z,15.61
2022-11-08T08:13:10.283Z,15.65
2022-11-08T08:14:11.270Z,15.69
2022-11-08T08:15:10.751Z,15.77
2022-11-08T08:16:10.993Z,15.81
2022-11-08T08:17:11.123Z,15.84
2022-11-08T08:18:10.521Z,15.90
2022-11-08T08:19:11.104Z,15.94
2022-11-08T08:20:10.331Z,16.00
2022-11-08T08:21:10.660Z,16.02
2022-11-08T08:22:10.552Z,16.09
2022-11-08T08:23:10.842Z,16.11
2022-11-08T08:24:10.828Z,16.17
2022-11-08T08:25:11.159Z,16.24
2022-11-08T08:26:10.445Z,16.27
2022-11-08T08:27:10.828Z,16.29
2022-11-08T08:28:10.969Z,16.36
2022-11-08T08:29:10.395Z,16.40
2022-11-08T08:30:10.506Z,16.44
2022-11-08T08:31:10.783Z,16.47
2022-11-08T08:32:10.746Z,16.51
2022-11-08T08:33:29.105Z,16.56
2022-11-08T08:34:10.295Z,16.65
2022-11-08T08:35:10.392Z,16.65
2022-11-08T08:36:10.285Z,16.69
2022-11-08T08:37:10.460Z,16.67
2022-11-08T08:38:10.441Z,16.70
2022-11-08T08:39:10.703Z,16.75
2022-11-08T08:40:10.774Z,16.75
2022-11-08T08:41:10.613Z,16.76
2022-11-08T08:42:10.564Z,16.79
2022-11-08T08:43:10.873Z,16.81
2022-11-08T08:44:10.463Z,16.85
2022-11-08T08:45:14.715Z,16.87
2022-11-08T08:46:10.995Z,16.91
2022-11-08T08:47:11.245Z,16.95
2022-11-08T08:48:10.492Z,16.95
2022-11-08T08:49:10.873Z,17.00
2022-11-08T08:50:11.154Z,17.02
2022-11-08T08:51:10.377Z,17.00
2022-11-08T08:52:10.722Z,17.01
2022-11-08T08:53:11.172Z,16.99
2022-11-08T08:54:11.021Z,16.99
2022-11-08T08:55:10.616Z,17.02
2022-11-08T08:56:10.853Z,17.04
2022-11-08T08:57:11.161Z,17.06
2022-11-08T08:58:10.362Z,17.06
2022-11-08T09:01:38.571Z,17.05
2022-11-08T09:02:10.624Z,17.07
2022-11-08T09:03:11.158Z,17.10
2022-11-08T09:04:11.237Z,17.09
2022-11-08T09:05:10.610Z,17.09
2022-11-08T09:06:10.716Z,17.11
2022-11-08T09:07:10.805Z,17.12
2022-11-08T09:08:15.806Z,17.11
2022-11-08T09:09:11.240Z,17.13
2022-11-08T09:10:10.094Z,17.15
2022-11-08T09:11:10.376Z,17.18
2022-11-08T09:12:11.911Z,17.19
2022-11-08T09:13:10.628Z,17.22
2022-11-08T09:14:10.473Z,17.20
2022-11-08T09:15:10.933Z,17.21
2022-11-08T09:16:11.210Z,17.23
2022-11-08T09:17:10.412Z,17.21
2022-11-08T09:18:10.811Z,17.20
2022-11-08T09:19:10.943Z,17.19
2022-11-08T09:20:11.016Z,17.21
2022-11-08T09:21:10.077Z,17.24
2022-11-08T09:22:11.129Z,17.22
2022-11-08T09:23:10.265Z,17.24
2022-11-08T09:24:10.116Z,17.25
2022-11-08T09:25:10.387Z,17.23
2022-11-08T09:26:10.747Z,17.25
2022-11-08T09:27:10.965Z,17.23
2022-11-08T09:28:11.097Z,17.23
2022-11-08T09:29:11.006Z,17.25
2022-11-08T09:30:11.243Z,17.25
2022-11-08T09:31:10.453Z,17.23
2022-11-08T09:32:10.497Z,17.23
2022-11-08T09:33:10.545Z,17.22
2022-11-08T09:34:24.252Z,17.23
2022-11-08T09:35:10.485Z,17.22
2022-11-08T09:36:29.684Z,17.22
2022-11-08T09:37:10.571Z,17.23
2022-11-08T09:38:10.599Z,17.27
2022-11-08T09:39:10.526Z,17.27
2022-11-08T09:40:10.902Z,17.28
2022-11-08T09:41:10.909Z,17.30
2022-11-08T09:42:10.820Z,17.31
2022-11-08T09:43:10.873Z,17.35
2022-11-08T09:44:29.200Z,17.36
2022-11-08T09:45:10.342Z,17.37
2022-11-08T09:46:10.500Z,17.38
2022-11-08T09:47:10.624Z,17.39
2022-11-08T09:48:32.775Z,17.42
2022-11-08T09:49:10.760Z,17.47
2022-11-08T09:50:10.847Z,17.48
2022-11-08T09:51:11.309Z,17.52
2022-11-08T09:52:32.961Z,17.53
2022-11-08T09:53:10.468Z,17.58
2022-11-08T09:54:10.164Z,17.60
2022-11-08T09:55:11.131Z,17.60
2022-11-08T09:56:10.390Z,17.61
2022-11-08T09:57:10.832Z,17.63
2022-11-08T09:58:10.912Z,17.68
2022-11-08T09:59:10.088Z,17.70
2022-11-08T10:00:11.463Z,17.75
2022-11-08T10:01:10.244Z,17.76
2022-11-08T10:02:10.421Z,17.81
2022-11-08T10:03:11.350Z,17.86
2022-11-08T10:04:11.084Z,17.91
2022-11-08T10:05:10.522Z,17.96
2022-11-08T10:06:11.990Z,18.00
2022-11-08T10:07:11.142Z,18.03
2022-11-08T10:08:11.122Z,18.06
2022-11-08T10:09:09.126Z,18.05
2022-11-08T10:10:09.720Z,18.09
2022-11-08T10:11:10.695Z,18.09
2022-11-08T10:12:10.830Z,18.11
2022-11-08T10:13:10.840Z,18.11
2022-11-08T10:14:10.595Z,18.13
2022-11-08T10:15:11.486Z,18.13
2022-11-08T10:16:10.664Z,18.15
2022-11-08T10:17:10.961Z,18.14
2022-11-08T10:18:10.233Z,18.17
2022-11-08T10:19:10.685Z,18.19
2022-11-08T10:20:11.273Z,18.18
2022-11-08T10:21:10.859Z,18.14
2022-11-08T10:22:10.407Z,18.15
2022-11-08T10:23:10.675Z,18.16
2022-11-08T10:24:10.348Z,18.20
2022-11-08T10:25:10.807Z,18.23
2022-11-08T10:26:11.010Z,18.26
2022-11-08T10:27:10.926Z,18.28
2022-11-08T10:28:10.963Z,18.30
2022-11-08T10:29:09.997Z,18.34
2022-11-08T10:30:10.655Z,18.40
2022-11-08T10:31:11.046Z,18.43
2022-11-08T10:32:10.322Z,18.43
2022-11-08T10:33:10.792Z,18.43
2022-11-08T10:34:10.553Z,18.46
2022-11-08T10:35:10.993Z,18.50
2022-11-08T10:36:10.529Z,18.50
2022-11-08T10:37:10.775Z,18.54
2022-11-08T10:38:11.004Z,18.53
2022-11-08T10:39:10.415Z,18.57
2022-11-08T10:40:11.092Z,18.61
2022-11-08T10:41:10.489Z,18.63
2022-11-08T10:42:11.010Z,18.68
2022-11-08T10:43:10.487Z,18.70
2022-11-08T10:44:10.810Z,18.72
2022-11-08T10:45:11.409Z,18.75
2022-11-08T10:46:10.692Z,18.80
2022-11-08T10:47:11.254Z,18.80
2022-11-08T10:48:10.943Z,18.83
2022-11-08T10:49:10.975Z,18.87
2022-11-08T10:50:11.281Z,18.89
2022-11-08T10:51:11.083Z,18.91
2022-11-08T10:52:10.417Z,18.95
2022-11-08T10:53:10.708Z,18.95
2022-11-08T10:54:10.842Z,19.01
2022-11-08T10:55:11.237Z,19.04
2022-11-08T10:56:10.558Z,19.10
2022-11-08T10:57:11.247Z,19.16
2022-11-08T10:58:10.710Z,19.16
2022-11-08T10:59:10.749Z,19.21
2022-11-08T11:00:11.446Z,19.24
2022-11-08T11:01:11.536Z,19.29
2022-11-08T11:02:10.394Z,19.34
2022-11-08T11:03:11.120Z,19.38
2022-11-08T11:04:10.479Z,19.43
2022-11-08T11:05:11.311Z,19.44
2022-11-08T11:06:10.744Z,19.45
2022-11-08T11:07:10.839Z,19.46
2022-11-08T11:08:10.516Z,19.48
2022-11-08T11:09:10.680Z,19.48
2022-11-08T11:10:12.221Z,19.51
2022-11-08T11:11:10.720Z,19.51
2022-11-08T11:12:11.142Z,19.53
2022-11-08T11:13:10.520Z,19.55
2022-11-08T11:14:13.109Z,19.57
2022-11-08T11:15:10.217Z,19.56
2022-11-08T11:16:10.338Z,19.55
2022-11-08T11:17:10.561Z,19.56
2022-11-08T11:18:11.242Z,19.56
2022-11-08T11:19:10.901Z,19.56
2022-11-08T11:20:11.066Z,19.61
2022-11-08T11:21:10.189Z,19.63
2022-11-08T11:22:10.789Z,19.61
2022-11-08T11:23:11.221Z,19.60
2022-11-08T11:24:10.686Z,19.59
2022-11-08T11:25:10.609Z,19.56
2022-11-08T11:26:10.836Z,19.57
2022-11-08T11:27:11.234Z,19.56
2022-11-08T11:28:10.397Z,19.59
2022-11-08T11:29:10.465Z,19.59
2022-11-08T11:30:11.881Z,19.59
2022-11-08T11:31:10.696Z,19.58
2022-11-08T11:32:11.244Z,19.55
2022-11-08T11:33:11.088Z,19.56
2022-11-08T11:34:11.124Z,19.55
2022-11-08T11:35:10.917Z,19.58
2022-11-08T11:36:13.665Z,19.56
2022-11-08T11:37:10.083Z,19.59
2022-11-08T11:38:11.010Z,19.63
2022-11-08T11:39:11.150Z,19.63
2022-11-08T11:40:10.498Z,19.67
2022-11-08T11:41:11.261Z,19.70
2022-11-08T11:42:31.223Z,19.74
2022-11-08T11:43:10.625Z,19.73
2022-11-08T11:44:11.066Z,19.78
2022-11-08T11:45:10.756Z,19.80
2022-11-08T11:46:10.936Z,19.88
2022-11-08T11:47:11.122Z,19.92
2022-11-08T11:48:10.521Z,19.94
2022-11-08T11:49:10.369Z,19.96
2022-11-08T11:50:10.753Z,20.00
2022-11-08T11:51:11.064Z,20.07
2022-11-08T11:52:10.341Z,20.12
2022-11-08T11:53:10.715Z,20.19
2022-11-08T11:54:11.042Z,20.25
2022-11-08T11:55:10.337Z,20.30
2022-11-08T11:56:10.704Z,20.37
2022-11-08T11:57:10.933Z,20.42
2022-11-08T11:58:10.625Z,20.51
2022-11-08T11:59:11.227Z,20.55
2022-11-08T12:00:10.873Z,20.61
2022-11-08T12:01:14.187Z,20.62
2022-11-08T12:02:10.963Z,20.67
2022-11-08T12:03:10.448Z,20.71
2022-11-08T12:04:10.654Z,20.76
2022-11-08T12:05:10.951Z,20.80
2022-11-08T12:06:11.014Z,20.86
2022-11-08T12:07:11.360Z,20.87
2022-11-08T12:08:10.796Z,20.90
2022-11-08T12:09:10.979Z,20.95
2022-11-08T12:10:11.277Z,20.98
2022-11-08T12:11:10.576Z,21.04
2022-11-08T12:12:10.844Z,21.07
2022-11-08T12:13:11.096Z,21.13
2022-11-08T12:14:11.261Z,21.14
2022-11-08T12:15:10.907Z,21.15
2022-11-08T12:16:11.266Z,21.18
2022-11-08T12:17:10.651Z,21.20
2022-11-08T12:18:11.117Z,21.23
2022-11-08T12:19:11.234Z,21.26
2022-11-08T12:20:10.601Z,21.28
2022-11-08T12:21:10.697Z,21.27
2022-11-08T12:22:10.962Z,21.29
2022-11-08T12:23:11.049Z,21.31
2022-11-08T12:24:11.274Z,21.29
2022-11-08T12:25:10.699Z,21.28
2022-11-08T12:26:11.290Z,21.29
2022-11-08T12:27:10.815Z,21.31
2022-11-08T12:28:10.894Z,21.32
2022-11-08T12:29:10.486Z,21.33
2022-11-08T12:30:10.952Z,21.32
2022-11-08T12:31:11.515Z,21.35
2022-11-08T12:32:10.864Z,21.33
2022-11-08T12:33:10.313Z,21.34
2022-11-08T12:34:10.625Z,21.38
2022-11-08T12:35:11.000Z,21.38
2022-11-08T12:36:10.352Z,21.34
2022-11-08T12:37:10.443Z,21.31
2022-11-08T12:38:11.094Z,21.31
2022-11-08T12:39:11.136Z,21.29
2022-11-08T12:40:10.787Z,21.29
2022-11-08T12:41:11.266Z,21.31
2022-11-08T12:42:10.693Z,21.29
2022-11-08T12:43:11.715Z,21.30
2022-11-08T12:44:11.267Z,21.32
2022-11-08T12:45:10.920Z,21.33
2022-11-08T12:46:10.331Z,21.31
2022-11-08T12:47:10.779Z,21.29
2022-11-08T12:48:10.669Z,21.25
2022-11-08T12:49:10.628Z,21.20
2022-11-08T12:50:11.042Z,21.18
2022-11-08T12:51:10.433Z,21.20
2022-11-08T12:52:10.811Z,21.19
2022-11-08T12:53:11.264Z,21.20
2022-11-08T12:54:10.489Z,21.19
2022-11-08T12:55:10.851Z,21.17
2022-11-08T12:56:11.173Z,21.16
2022-11-08T12:57:10.793Z,21.17